sensor_id;sensor_type;location;lat;lon;timestamp;P1;durP1;ratioP1;P2;durP2;ratioP2
4601;SDS011;2313;48.552;9.370;2023-06-10T00:01:21;6.80;;;6.10;;
4601;SDS011;2313;48.552;9.370;2023-06-10T00:03:49;6.93;;;6.23;;
4601;SDS011;2313;48.552;9.370;2023-06-10T00:06:15;9.23;;;6.33;;
4601;SDS011;2313;48.552;9.370;2023-06-10T00:08:44;9.60;;;6.03;;
4601;SDS011;2313;48.552;9.370;2023-06-10T00:11:12;7.60;;;6.70;;
4601;SDS011;2313;48.552;9.370;2023-06-10T00:13:37;8.83;;;6.27;;
4601;SDS011;2313;48.552;9.370;2023-06-10T00:16:03;7.10;;;6.50;;
4601;SDS011;2313;48.552;9.370;2023-06-10T00:18:29;6.87;;;6.10;;
4601;SDS011;2313;48.552;9.370;2023-06-10T00:20:56;7.73;;;6.93;;
4601;SDS011;2313;48.552;9.370;2023-06-10T00:23:28;6.83;;;6.20;;
4601;SDS011;2313;48.552;9.370;2023-06-10T00:25:56;7.53;;;6.73;;
4601;SDS011;2313;48.552;9.370;2023-06-10T00:28:23;8.40;;;6.83;;
4601;SDS011;2313;48.552;9.370;2023-06-10T00:30:48;7.30;;;6.60;;
4601;SDS011;2313;48.552;9.370;2023-06-10T00:33:14;8.23;;;7.07;;
4601;SDS011;2313;48.552;9.370;2023-06-10T00:35:40;14.13;;;7.70;;
4601;SDS011;2313;48.552;9.370;2023-06-10T00:38:05;7.10;;;6.40;;
4601;SDS011;2313;48.552;9.370;2023-06-10T00:40:33;11.37;;;8.23;;
4601;SDS011;2313;48.552;9.370;2023-06-10T00:43:03;6.90;;;5.83;;
4601;SDS011;2313;48.552;9.370;2023-06-10T00:45:29;7.70;;;6.90;;
4601;SDS011;2313;48.552;9.370;2023-06-10T00:47:55;12.40;;;7.60;;
4601;SDS011;2313;48.552;9.370;2023-06-10T00:50:21;8.80;;;7.30;;
4601;SDS011;2313;48.552;9.370;2023-06-10T00:52:46;12.03;;;7.60;;
4601;SDS011;2313;48.552;9.370;2023-06-10T00:55:13;11.53;;;7.80;;
4601;SDS011;2313;48.552;9.370;2023-06-10T00:57:41;10.97;;;7.50;;
4601;SDS011;2313;48.552;9.370;2023-06-10T01:00:09;8.00;;;7.20;;
4601;SDS011;2313;48.552;9.370;2023-06-10T01:02:37;9.33;;;7.50;;
4601;SDS011;2313;48.552;9.370;2023-06-10T01:05:02;9.53;;;7.83;;
4601;SDS011;2313;48.552;9.370;2023-06-10T01:07:32;9.27;;;7.00;;
4601;SDS011;2313;48.552;9.370;2023-06-10T01:10:06;9.73;;;6.87;;
4601;SDS011;2313;48.552;9.370;2023-06-10T01:12:46;7.83;;;7.03;;
4601;SDS011;2313;48.552;9.370;2023-06-10T01:15:21;9.90;;;7.80;;
4601;SDS011;2313;48.552;9.370;2023-06-10T01:17:57;7.73;;;7.00;;
4601;SDS011;2313;48.552;9.370;2023-06-10T01:20:28;8.00;;;7.20;;
4601;SDS011;2313;48.552;9.370;2023-06-10T01:22:57;8.83;;;7.73;;
4601;SDS011;2313;48.552;9.370;2023-06-10T01:25:25;9.57;;;7.17;;
4601;SDS011;2313;48.552;9.370;2023-06-10T01:28:20;9.00;;;7.60;;
4601;SDS011;2313;48.552;9.370;2023-06-10T01:33:33;8.07;;;7.27;;
4601;SDS011;2313;48.552;9.370;2023-06-10T01:36:04;9.37;;;7.83;;
4601;SDS011;2313;48.552;9.370;2023-06-10T01:38:30;11.03;;;8.03;;
4601;SDS011;2313;48.552;9.370;2023-06-10T01:41:01;8.07;;;7.27;;
4601;SDS011;2313;48.552;9.370;2023-06-10T01:43:28;9.30;;;8.30;;
4601;SDS011;2313;48.552;9.370;2023-06-10T01:45:53;10.07;;;8.20;;
4601;SDS011;2313;48.552;9.370;2023-06-10T01:48:19;11.73;;;8.33;;
4601;SDS011;2313;48.552;9.370;2023-06-10T01:50:45;8.37;;;7.57;;
4601;SDS011;2313;48.552;9.370;2023-06-10T01:53:10;8.87;;;7.97;;
4601;SDS011;2313;48.552;9.370;2023-06-10T01:55:36;9.30;;;8.40;;
4601;SDS011;2313;48.552;9.370;2023-06-10T01:58:01;12.20;;;8.07;;
4601;SDS011;2313;48.552;9.370;2023-06-10T02:00:27;9.43;;;8.43;;
4601;SDS011;2313;48.552;9.370;2023-06-10T02:02:53;10.60;;;8.47;;
4601;SDS011;2313;48.552;9.370;2023-06-10T02:05:18;10.77;;;8.23;;
4601;SDS011;2313;48.552;9.370;2023-06-10T02:07:44;8.13;;;7.33;;
4601;SDS011;2313;48.552;9.370;2023-06-10T02:10:10;9.27;;;7.30;;
4601;SDS011;2313;48.552;9.370;2023-06-10T02:12:35;9.70;;;7.67;;
4601;SDS011;2313;48.552;9.370;2023-06-10T02:15:01;8.10;;;7.30;;
4601;SDS011;2313;48.552;9.370;2023-06-10T02:17:27;8.87;;;7.50;;
4601;SDS011;2313;48.552;9.370;2023-06-10T02:19:52;11.13;;;7.90;;
4601;SDS011;2313;48.552;9.370;2023-06-10T02:22:21;7.13;;;6.40;;
4601;SDS011;2313;48.552;9.370;2023-06-10T02:24:48;7.63;;;6.77;;
4601;SDS011;2313;48.552;9.370;2023-06-10T02:27:14;9.63;;;7.80;;
4601;SDS011;2313;48.552;9.370;2023-06-10T02:29:40;8.27;;;6.17;;
4601;SDS011;2313;48.552;9.370;2023-06-10T02:32:07;12.40;;;7.37;;
4601;SDS011;2313;48.552;9.370;2023-06-10T02:34:33;7.23;;;6.60;;
4601;SDS011;2313;48.552;9.370;2023-06-10T02:36:59;7.00;;;6.37;;
4601;SDS011;2313;48.552;9.370;2023-06-10T02:39:25;8.37;;;6.80;;
4601;SDS011;2313;48.552;9.370;2023-06-10T02:41:51;9.27;;;6.40;;
4601;SDS011;2313;48.552;9.370;2023-06-10T02:44:20;7.67;;;6.87;;
4601;SDS011;2313;48.552;9.370;2023-06-10T02:46:46;7.60;;;6.90;;
4601;SDS011;2313;48.552;9.370;2023-06-10T02:49:12;7.20;;;6.40;;
4601;SDS011;2313;48.552;9.370;2023-06-10T02:51:38;11.70;;;7.30;;
4601;SDS011;2313;48.552;9.370;2023-06-10T02:54:03;10.60;;;8.10;;
4601;SDS011;2313;48.552;9.370;2023-06-10T02:56:29;8.97;;;8.07;;
4601;SDS011;2313;48.552;9.370;2023-06-10T02:58:56;8.83;;;8.00;;
4601;SDS011;2313;48.552;9.370;2023-06-10T03:01:22;9.70;;;8.70;;
4601;SDS011;2313;48.552;9.370;2023-06-10T03:03:48;8.80;;;7.90;;
4601;SDS011;2313;48.552;9.370;2023-06-10T03:06:15;10.00;;;9.00;;
4601;SDS011;2313;48.552;9.370;2023-06-10T03:08:41;11.77;;;9.30;;
4601;SDS011;2313;48.552;9.370;2023-06-10T03:11:06;10.80;;;9.07;;
4601;SDS011;2313;48.552;9.370;2023-06-10T03:13:32;10.03;;;8.00;;
4601;SDS011;2313;48.552;9.370;2023-06-10T03:15:57;9.17;;;8.27;;
4601;SDS011;2313;48.552;9.370;2023-06-10T03:18:27;10.10;;;8.57;;
4601;SDS011;2313;48.552;9.370;2023-06-10T03:20:53;9.67;;;8.60;;
4601;SDS011;2313;48.552;9.370;2023-06-10T03:23:22;11.57;;;8.87;;
4601;SDS011;2313;48.552;9.370;2023-06-10T03:25:51;10.07;;;8.43;;
4601;SDS011;2313;48.552;9.370;2023-06-10T03:28:17;8.97;;;8.03;;
4601;SDS011;2313;48.552;9.370;2023-06-10T03:30:43;10.00;;;8.50;;
4601;SDS011;2313;48.552;9.370;2023-06-10T03:33:08;13.80;;;8.53;;
4601;SDS011;2313;48.552;9.370;2023-06-10T03:35:34;10.40;;;8.37;;
4601;SDS011;2313;48.552;9.370;2023-06-10T03:38:00;11.43;;;8.90;;
4601;SDS011;2313;48.552;9.370;2023-06-10T03:40:25;8.70;;;7.83;;
4601;SDS011;2313;48.552;9.370;2023-06-10T03:42:51;9.80;;;8.33;;
4601;SDS011;2313;48.552;9.370;2023-06-10T03:45:16;11.47;;;8.00;;
4601;SDS011;2313;48.552;9.370;2023-06-10T03:47:42;9.13;;;7.90;;
4601;SDS011;2313;48.552;9.370;2023-06-10T03:50:09;9.83;;;8.23;;
4601;SDS011;2313;48.552;9.370;2023-06-10T03:52:35;10.47;;;8.83;;
4601;SDS011;2313;48.552;9.370;2023-06-10T03:55:01;9.00;;;8.10;;
4601;SDS011;2313;48.552;9.370;2023-06-10T03:57:27;11.10;;;8.37;;
4601;SDS011;2313;48.552;9.370;2023-06-10T03:59:52;9.57;;;8.17;;
4601;SDS011;2313;48.552;9.370;2023-06-10T04:02:18;9.20;;;7.97;;
4601;SDS011;2313;48.552;9.370;2023-06-10T04:04:44;9.00;;;8.00;;
4601;SDS011;2313;48.552;9.370;2023-06-10T04:07:09;8.97;;;7.70;;
4601;SDS011;2313;48.552;9.370;2023-06-10T04:09:36;12.70;;;8.20;;
4601;SDS011;2313;48.552;9.370;2023-06-10T04:12:02;13.23;;;9.00;;
4601;SDS011;2313;48.552;9.370;2023-06-10T04:14:31;12.13;;;8.20;;
4601;SDS011;2313;48.552;9.370;2023-06-10T04:16:56;12.10;;;7.40;;
4601;SDS011;2313;48.552;9.370;2023-06-10T04:19:22;12.00;;;8.10;;
4601;SDS011;2313;48.552;9.370;2023-06-10T04:21:48;8.93;;;7.90;;
4601;SDS011;2313;48.552;9.370;2023-06-10T04:24:13;10.47;;;8.43;;
4601;SDS011;2313;48.552;9.370;2023-06-10T04:26:39;11.33;;;9.20;;
4601;SDS011;2313;48.552;9.370;2023-06-10T04:29:04;8.47;;;7.57;;
4601;SDS011;2313;48.552;9.370;2023-06-10T04:31:30;9.93;;;8.93;;
4601;SDS011;2313;48.552;9.370;2023-06-10T04:33:57;13.90;;;9.80;;
4601;SDS011;2313;48.552;9.370;2023-06-10T04:36:22;10.20;;;9.10;;
4601;SDS011;2313;48.552;9.370;2023-06-10T04:38:48;10.97;;;8.70;;
4601;SDS011;2313;48.552;9.370;2023-06-10T04:41:14;12.63;;;9.53;;
4601;SDS011;2313;48.552;9.370;2023-06-10T04:43:40;11.40;;;9.37;;
4601;SDS011;2313;48.552;9.370;2023-06-10T04:46:05;10.97;;;9.50;;
4601;SDS011;2313;48.552;9.370;2023-06-10T04:48:31;12.67;;;8.87;;
4601;SDS011;2313;48.552;9.370;2023-06-10T04:51:00;10.60;;;8.63;;
4601;SDS011;2313;48.552;9.370;2023-06-10T04:53:25;12.50;;;9.67;;
4601;SDS011;2313;48.552;9.370;2023-06-10T04:55:51;11.37;;;10.00;;
4601;SDS011;2313;48.552;9.370;2023-06-10T04:58:17;11.60;;;10.10;;
4601;SDS011;2313;48.552;9.370;2023-06-10T05:00:43;10.70;;;9.37;;
4601;SDS011;2313;48.552;9.370;2023-06-10T05:03:08;10.20;;;8.63;;
4601;SDS011;2313;48.552;9.370;2023-06-10T05:05:34;10.53;;;9.43;;
4601;SDS011;2313;48.552;9.370;2023-06-10T05:07:59;14.73;;;9.37;;
4601;SDS011;2313;48.552;9.370;2023-06-10T05:10:25;10.43;;;9.43;;
4601;SDS011;2313;48.552;9.370;2023-06-10T05:12:51;10.00;;;8.60;;
4601;SDS011;2313;48.552;9.370;2023-06-10T05:15:16;13.30;;;10.60;;
4601;SDS011;2313;48.552;9.370;2023-06-10T05:17:42;11.57;;;8.70;;
4601;SDS011;2313;48.552;9.370;2023-06-10T05:20:08;10.10;;;8.90;;
4601;SDS011;2313;48.552;9.370;2023-06-10T05:22:34;10.10;;;8.47;;
4601;SDS011;2313;48.552;9.370;2023-06-10T05:24:59;9.20;;;8.30;;
4601;SDS011;2313;48.552;9.370;2023-06-10T05:27:25;10.77;;;8.50;;
4601;SDS011;2313;48.552;9.370;2023-06-10T05:29:50;8.50;;;7.70;;
4601;SDS011;2313;48.552;9.370;2023-06-10T05:32:16;12.03;;;9.07;;
4601;SDS011;2313;48.552;9.370;2023-06-10T05:34:42;9.83;;;8.83;;
4601;SDS011;2313;48.552;9.370;2023-06-10T05:37:08;10.27;;;9.17;;
4601;SDS011;2313;48.552;9.370;2023-06-10T05:39:35;10.27;;;8.17;;
4601;SDS011;2313;48.552;9.370;2023-06-10T05:42:03;8.97;;;8.07;;
4601;SDS011;2313;48.552;9.370;2023-06-10T05:44:31;10.43;;;7.83;;
4601;SDS011;2313;48.552;9.370;2023-06-10T05:46:57;12.37;;;8.57;;
4601;SDS011;2313;48.552;9.370;2023-06-10T05:49:22;19.40;;;9.07;;
4601;SDS011;2313;48.552;9.370;2023-06-10T05:51:48;9.30;;;8.40;;
4601;SDS011;2313;48.552;9.370;2023-06-10T05:54:13;10.23;;;9.17;;
4601;SDS011;2313;48.552;9.370;2023-06-10T05:56:39;13.93;;;8.87;;
4601;SDS011;2313;48.552;9.370;2023-06-10T05:59:05;9.53;;;8.63;;
4601;SDS011;2313;48.552;9.370;2023-06-10T06:01:30;9.97;;;8.80;;
4601;SDS011;2313;48.552;9.370;2023-06-10T06:03:56;8.37;;;7.57;;
4601;SDS011;2313;48.552;9.370;2023-06-10T06:06:21;14.03;;;9.07;;
4601;SDS011;2313;48.552;9.370;2023-06-10T06:08:48;8.80;;;7.57;;
4601;SDS011;2313;48.552;9.370;2023-06-10T06:11:13;8.80;;;7.90;;
4601;SDS011;2313;48.552;9.370;2023-06-10T06:13:39;9.80;;;8.90;;
4601;SDS011;2313;48.552;9.370;2023-06-10T06:16:06;9.43;;;8.13;;
4601;SDS011;2313;48.552;9.370;2023-06-10T06:18:31;9.60;;;8.43;;
4601;SDS011;2313;48.552;9.370;2023-06-10T06:20:57;9.80;;;7.60;;
4601;SDS011;2313;48.552;9.370;2023-06-10T06:23:23;9.90;;;8.90;;
4601;SDS011;2313;48.552;9.370;2023-06-10T06:25:48;9.97;;;9.07;;
4601;SDS011;2313;48.552;9.370;2023-06-10T06:28:14;9.83;;;8.83;;
4601;SDS011;2313;48.552;9.370;2023-06-10T06:30:40;9.07;;;8.17;;
4601;SDS011;2313;48.552;9.370;2023-06-10T06:33:05;9.10;;;8.20;;
4601;SDS011;2313;48.552;9.370;2023-06-10T06:35:32;10.20;;;7.43;;
4601;SDS011;2313;48.552;9.370;2023-06-10T06:37:59;12.90;;;8.00;;
4601;SDS011;2313;48.552;9.370;2023-06-10T06:40:24;9.93;;;8.20;;
4601;SDS011;2313;48.552;9.370;2023-06-10T06:42:50;10.57;;;7.60;;
4601;SDS011;2313;48.552;9.370;2023-06-10T06:45:16;10.87;;;8.27;;
4601;SDS011;2313;48.552;9.370;2023-06-10T06:47:41;9.60;;;8.03;;
4601;SDS011;2313;48.552;9.370;2023-06-10T06:50:08;8.27;;;7.47;;
4601;SDS011;2313;48.552;9.370;2023-06-10T06:52:34;8.70;;;7.50;;
4601;SDS011;2313;48.552;9.370;2023-06-10T06:55:00;8.17;;;7.43;;
4601;SDS011;2313;48.552;9.370;2023-06-10T06:57:26;8.63;;;7.73;;
4601;SDS011;2313;48.552;9.370;2023-06-10T06:59:51;8.90;;;8.00;;
4601;SDS011;2313;48.552;9.370;2023-06-10T07:02:17;9.33;;;7.67;;
4601;SDS011;2313;48.552;9.370;2023-06-10T07:04:43;9.97;;;7.83;;
4601;SDS011;2313;48.552;9.370;2023-06-10T07:07:10;9.87;;;7.40;;
4601;SDS011;2313;48.552;9.370;2023-06-10T07:09:37;9.90;;;8.90;;
4601;SDS011;2313;48.552;9.370;2023-06-10T07:12:03;8.20;;;7.40;;
4601;SDS011;2313;48.552;9.370;2023-06-10T07:14:28;9.10;;;8.13;;
4601;SDS011;2313;48.552;9.370;2023-06-10T07:16:54;9.93;;;8.40;;
4601;SDS011;2313;48.552;9.370;2023-06-10T07:19:20;7.80;;;7.00;;
4601;SDS011;2313;48.552;9.370;2023-06-10T07:21:45;8.50;;;7.27;;
4601;SDS011;2313;48.552;9.370;2023-06-10T07:24:11;9.70;;;7.40;;
4601;SDS011;2313;48.552;9.370;2023-06-10T07:26:36;8.30;;;7.50;;
4601;SDS011;2313;48.552;9.370;2023-06-10T07:29:02;8.90;;;7.30;;
4601;SDS011;2313;48.552;9.370;2023-06-10T07:31:28;11.43;;;8.23;;
4601;SDS011;2313;48.552;9.370;2023-06-10T07:33:53;10.20;;;8.10;;
4601;SDS011;2313;48.552;9.370;2023-06-10T07:36:19;8.17;;;7.20;;
4601;SDS011;2313;48.552;9.370;2023-06-10T07:38:45;7.80;;;7.00;;
4601;SDS011;2313;48.552;9.370;2023-06-10T07:41:10;9.50;;;6.60;;
4601;SDS011;2313;48.552;9.370;2023-06-10T07:43:36;11.73;;;7.30;;
4601;SDS011;2313;48.552;9.370;2023-06-10T07:46:02;7.17;;;6.47;;
4601;SDS011;2313;48.552;9.370;2023-06-10T07:48:28;11.97;;;6.87;;
4601;SDS011;2313;48.552;9.370;2023-06-10T07:50:53;8.93;;;7.10;;
4601;SDS011;2313;48.552;9.370;2023-06-10T07:53:19;7.53;;;6.90;;
4601;SDS011;2313;48.552;9.370;2023-06-10T07:55:45;9.20;;;7.00;;
4601;SDS011;2313;48.552;9.370;2023-06-10T07:58:10;9.90;;;7.07;;
4601;SDS011;2313;48.552;9.370;2023-06-10T08:00:36;7.83;;;7.03;;
4601;SDS011;2313;48.552;9.370;2023-06-10T08:03:02;7.43;;;6.53;;
4601;SDS011;2313;48.552;9.370;2023-06-10T08:05:27;7.80;;;6.57;;
4601;SDS011;2313;48.552;9.370;2023-06-10T08:07:54;7.50;;;6.47;;
4601;SDS011;2313;48.552;9.370;2023-06-10T08:10:20;7.73;;;7.00;;
4601;SDS011;2313;48.552;9.370;2023-06-10T08:12:45;8.67;;;6.07;;
4601;SDS011;2313;48.552;9.370;2023-06-10T08:15:11;6.20;;;5.60;;
4601;SDS011;2313;48.552;9.370;2023-06-10T08:17:37;6.33;;;5.70;;
4601;SDS011;2313;48.552;9.370;2023-06-10T08:20:04;6.70;;;5.57;;
4601;SDS011;2313;48.552;9.370;2023-06-10T08:22:30;7.23;;;6.53;;
4601;SDS011;2313;48.552;9.370;2023-06-10T08:24:56;7.00;;;6.30;;
4601;SDS011;2313;48.552;9.370;2023-06-10T08:27:22;6.40;;;5.83;;
4601;SDS011;2313;48.552;9.370;2023-06-10T08:29:47;5.70;;;5.07;;
4601;SDS011;2313;48.552;9.370;2023-06-10T08:32:13;5.00;;;4.43;;
4601;SDS011;2313;48.552;9.370;2023-06-10T08:34:38;5.40;;;4.40;;
4601;SDS011;2313;48.552;9.370;2023-06-10T08:37:04;6.10;;;5.60;;
4601;SDS011;2313;48.552;9.370;2023-06-10T08:39:30;5.10;;;4.57;;
4601;SDS011;2313;48.552;9.370;2023-06-10T08:42:00;6.73;;;5.00;;
4601;SDS011;2313;48.552;9.370;2023-06-10T08:44:32;5.10;;;4.60;;
4601;SDS011;2313;48.552;9.370;2023-06-10T08:47:05;5.10;;;4.60;;
4601;SDS011;2313;48.552;9.370;2023-06-10T08:49:38;4.90;;;4.50;;
4601;SDS011;2313;48.552;9.370;2023-06-10T08:52:08;7.83;;;3.80;;
4601;SDS011;2313;48.552;9.370;2023-06-10T08:54:38;4.97;;;4.57;;
4601;SDS011;2313;48.552;9.370;2023-06-10T08:57:07;4.50;;;4.10;;
4601;SDS011;2313;48.552;9.370;2023-06-10T08:59:33;4.97;;;4.57;;
4601;SDS011;2313;48.552;9.370;2023-06-10T09:01:59;4.33;;;4.00;;
4601;SDS011;2313;48.552;9.370;2023-06-10T09:04:27;5.73;;;4.23;;
4601;SDS011;2313;48.552;9.370;2023-06-10T09:06:53;5.40;;;4.90;;
4601;SDS011;2313;48.552;9.370;2023-06-10T09:09:19;9.87;;;4.90;;
4601;SDS011;2313;48.552;9.370;2023-06-10T09:11:45;12.27;;;4.97;;
4601;SDS011;2313;48.552;9.370;2023-06-10T09:14:11;13.63;;;5.13;;
4601;SDS011;2313;48.552;9.370;2023-06-10T09:16:41;5.43;;;4.03;;
4601;SDS011;2313;48.552;9.370;2023-06-10T09:19:07;6.30;;;3.70;;
4601;SDS011;2313;48.552;9.370;2023-06-10T09:21:33;5.57;;;4.63;;
4601;SDS011;2313;48.552;9.370;2023-06-10T09:24:00;5.93;;;4.07;;
4601;SDS011;2313;48.552;9.370;2023-06-10T09:26:29;6.63;;;4.47;;
4601;SDS011;2313;48.552;9.370;2023-06-10T09:29:07;9.43;;;4.90;;
4601;SDS011;2313;48.552;9.370;2023-06-10T09:31:35;8.63;;;4.33;;
4601;SDS011;2313;48.552;9.370;2023-06-10T09:34:05;4.10;;;3.70;;
4601;SDS011;2313;48.552;9.370;2023-06-10T09:36:37;4.40;;;4.00;;
4601;SDS011;2313;48.552;9.370;2023-06-10T09:39:04;7.90;;;5.60;;
4601;SDS011;2313;48.552;9.370;2023-06-10T09:41:35;7.57;;;6.87;;
4601;SDS011;2313;48.552;9.370;2023-06-10T09:44:09;4.87;;;4.30;;
4601;SDS011;2313;48.552;9.370;2023-06-10T09:46:41;6.33;;;5.00;;
4601;SDS011;2313;48.552;9.370;2023-06-10T09:49:07;4.10;;;3.80;;
4601;SDS011;2313;48.552;9.370;2023-06-10T09:51:32;6.23;;;4.27;;
4601;SDS011;2313;48.552;9.370;2023-06-10T09:53:58;4.67;;;4.27;;
4601;SDS011;2313;48.552;9.370;2023-06-10T09:56:33;5.20;;;4.80;;
4601;SDS011;2313;48.552;9.370;2023-06-10T09:59:00;7.00;;;4.90;;
4601;SDS011;2313;48.552;9.370;2023-06-10T10:01:26;5.67;;;5.17;;
4601;SDS011;2313;48.552;9.370;2023-06-10T10:03:52;5.80;;;4.90;;
4601;SDS011;2313;48.552;9.370;2023-06-10T10:06:18;5.27;;;4.80;;
4601;SDS011;2313;48.552;9.370;2023-06-10T10:08:46;5.30;;;4.23;;
4601;SDS011;2313;48.552;9.370;2023-06-10T10:11:16;5.10;;;4.60;;
4601;SDS011;2313;48.552;9.370;2023-06-10T10:13:44;5.07;;;4.40;;
4601;SDS011;2313;48.552;9.370;2023-06-10T10:16:14;5.83;;;4.90;;
4601;SDS011;2313;48.552;9.370;2023-06-10T10:19:05;5.77;;;5.27;;
4601;SDS011;2313;48.552;9.370;2023-06-10T10:21:37;6.10;;;5.20;;
4601;SDS011;2313;48.552;9.370;2023-06-10T10:24:14;7.63;;;4.40;;
4601;SDS011;2313;48.552;9.370;2023-06-10T10:26:44;5.43;;;5.03;;
4601;SDS011;2313;48.552;9.370;2023-06-10T10:29:16;6.50;;;5.90;;
4601;SDS011;2313;48.552;9.370;2023-06-10T10:31:47;5.90;;;5.03;;
4601;SDS011;2313;48.552;9.370;2023-06-10T10:34:16;4.80;;;4.30;;
4601;SDS011;2313;48.552;9.370;2023-06-10T10:36:51;4.57;;;4.27;;
4601;SDS011;2313;48.552;9.370;2023-06-10T10:39:16;4.47;;;4.17;;
4601;SDS011;2313;48.552;9.370;2023-06-10T10:41:43;4.90;;;4.40;;
4601;SDS011;2313;48.552;9.370;2023-06-10T10:44:10;4.80;;;4.40;;
4601;SDS011;2313;48.552;9.370;2023-06-10T10:46:57;5.67;;;4.63;;
4601;SDS011;2313;48.552;9.370;2023-06-10T10:49:27;5.60;;;4.90;;
4601;SDS011;2313;48.552;9.370;2023-06-10T10:51:54;8.47;;;4.30;;
4601;SDS011;2313;48.552;9.370;2023-06-10T10:54:27;4.77;;;4.37;;
4601;SDS011;2313;48.552;9.370;2023-06-10T10:57:11;5.20;;;4.80;;
4601;SDS011;2313;48.552;9.370;2023-06-10T10:59:57;4.23;;;3.93;;
4601;SDS011;2313;48.552;9.370;2023-06-10T11:05:06;5.33;;;4.47;;
4601;SDS011;2313;48.552;9.370;2023-06-10T11:07:33;6.47;;;5.27;;
4601;SDS011;2313;48.552;9.370;2023-06-10T11:10:20;7.00;;;4.53;;
4601;SDS011;2313;48.552;9.370;2023-06-10T11:12:58;10.83;;;9.77;;
4601;SDS011;2313;48.552;9.370;2023-06-10T11:15:26;16.73;;;15.07;;
4601;SDS011;2313;48.552;9.370;2023-06-10T11:23:24;4.73;;;4.33;;
4601;SDS011;2313;48.552;9.370;2023-06-10T11:31:48;4.63;;;4.10;;
4601;SDS011;2313;48.552;9.370;2023-06-10T11:34:06;5.60;;;5.20;;
4601;SDS011;2313;48.552;9.370;2023-06-10T11:36:39;4.50;;;4.20;;
4601;SDS011;2313;48.552;9.370;2023-06-10T11:39:07;4.57;;;4.20;;
4601;SDS011;2313;48.552;9.370;2023-06-10T11:41:34;4.20;;;3.90;;
4601;SDS011;2313;48.552;9.370;2023-06-10T11:44:04;9.17;;;4.40;;
4601;SDS011;2313;48.552;9.370;2023-06-10T11:46:33;6.03;;;4.70;;
4601;SDS011;2313;48.552;9.370;2023-06-10T11:48:59;5.80;;;4.23;;
4601;SDS011;2313;48.552;9.370;2023-06-10T11:51:33;5.50;;;4.50;;
4601;SDS011;2313;48.552;9.370;2023-06-10T11:54:03;5.90;;;4.90;;
4601;SDS011;2313;48.552;9.370;2023-06-10T11:56:30;11.63;;;6.47;;
4601;SDS011;2313;48.552;9.370;2023-06-10T11:58:57;6.77;;;4.30;;
4601;SDS011;2313;48.552;9.370;2023-06-10T12:01:29;5.80;;;5.20;;
4601;SDS011;2313;48.552;9.370;2023-06-10T12:04:17;12.97;;;7.10;;
4601;SDS011;2313;48.552;9.370;2023-06-10T12:06:44;7.07;;;5.93;;
4601;SDS011;2313;48.552;9.370;2023-06-10T12:11:44;7.70;;;4.57;;
4601;SDS011;2313;48.552;9.370;2023-06-10T12:14:10;4.50;;;4.10;;
4601;SDS011;2313;48.552;9.370;2023-06-10T12:16:35;4.73;;;4.33;;
4601;SDS011;2313;48.552;9.370;2023-06-10T12:19:02;5.00;;;4.60;;
4601;SDS011;2313;48.552;9.370;2023-06-10T12:21:28;4.23;;;3.73;;
4601;SDS011;2313;48.552;9.370;2023-06-10T12:24:04;4.10;;;3.90;;
4601;SDS011;2313;48.552;9.370;2023-06-10T12:26:38;4.40;;;3.80;;
4601;SDS011;2313;48.552;9.370;2023-06-10T12:29:25;4.60;;;4.20;;
4601;SDS011;2313;48.552;9.370;2023-06-10T12:31:58;5.10;;;4.43;;
4601;SDS011;2313;48.552;9.370;2023-06-10T12:36:58;5.53;;;4.70;;
4601;SDS011;2313;48.552;9.370;2023-06-10T12:39:24;6.50;;;4.80;;
4601;SDS011;2313;48.552;9.370;2023-06-10T12:41:51;4.67;;;4.27;;
4601;SDS011;2313;48.552;9.370;2023-06-10T12:44:17;4.10;;;3.80;;
4601;SDS011;2313;48.552;9.370;2023-06-10T12:46:42;4.20;;;3.77;;
4601;SDS011;2313;48.552;9.370;2023-06-10T12:49:08;4.90;;;3.80;;
4601;SDS011;2313;48.552;9.370;2023-06-10T12:51:44;4.50;;;3.70;;
4601;SDS011;2313;48.552;9.370;2023-06-10T12:54:10;5.50;;;3.83;;
4601;SDS011;2313;48.552;9.370;2023-06-10T12:56:36;6.93;;;3.60;;
4601;SDS011;2313;48.552;9.370;2023-06-10T12:59:02;3.33;;;3.13;;
4601;SDS011;2313;48.552;9.370;2023-06-10T13:01:27;4.20;;;3.80;;
4601;SDS011;2313;48.552;9.370;2023-06-10T13:03:53;4.13;;;3.83;;
4601;SDS011;2313;48.552;9.370;2023-06-10T13:06:19;6.40;;;3.37;;
4601;SDS011;2313;48.552;9.370;2023-06-10T13:08:45;3.67;;;3.40;;
4601;SDS011;2313;48.552;9.370;2023-06-10T13:11:12;3.30;;;3.10;;
4601;SDS011;2313;48.552;9.370;2023-06-10T13:13:37;3.40;;;3.20;;
4601;SDS011;2313;48.552;9.370;2023-06-10T13:16:03;4.17;;;3.30;;
4601;SDS011;2313;48.552;9.370;2023-06-10T13:18:29;4.37;;;3.97;;
4601;SDS011;2313;48.552;9.370;2023-06-10T13:20:54;3.03;;;2.83;;
4601;SDS011;2313;48.552;9.370;2023-06-10T13:23:20;8.43;;;3.40;;
4601;SDS011;2313;48.552;9.370;2023-06-10T13:25:47;3.20;;;2.90;;
4601;SDS011;2313;48.552;9.370;2023-06-10T13:28:12;3.80;;;3.50;;
4601;SDS011;2313;48.552;9.370;2023-06-10T13:30:38;3.77;;;3.47;;
4601;SDS011;2313;48.552;9.370;2023-06-10T13:33:03;8.47;;;3.87;;
4601;SDS011;2313;48.552;9.370;2023-06-10T13:35:29;4.40;;;4.00;;
4601;SDS011;2313;48.552;9.370;2023-06-10T13:37:54;4.43;;;4.03;;
4601;SDS011;2313;48.552;9.370;2023-06-10T13:40:20;4.07;;;3.60;;
4601;SDS011;2313;48.552;9.370;2023-06-10T13:42:47;3.83;;;3.23;;
4601;SDS011;2313;48.552;9.370;2023-06-10T13:45:15;3.50;;;3.03;;
4601;SDS011;2313;48.552;9.370;2023-06-10T13:47:42;3.80;;;3.50;;
4601;SDS011;2313;48.552;9.370;2023-06-10T13:50:07;3.80;;;3.37;;
4601;SDS011;2313;48.552;9.370;2023-06-10T13:52:33;3.60;;;3.40;;
4601;SDS011;2313;48.552;9.370;2023-06-10T13:54:59;3.27;;;3.07;;
4601;SDS011;2313;48.552;9.370;2023-06-10T13:57:25;3.70;;;3.40;;
4601;SDS011;2313;48.552;9.370;2023-06-10T13:59:50;3.20;;;2.90;;
4601;SDS011;2313;48.552;9.370;2023-06-10T14:02:16;3.80;;;3.50;;
4601;SDS011;2313;48.552;9.370;2023-06-10T14:04:42;3.60;;;3.30;;
4601;SDS011;2313;48.552;9.370;2023-06-10T14:07:08;3.90;;;3.60;;
4601;SDS011;2313;48.552;9.370;2023-06-10T14:09:33;4.57;;;4.07;;
4601;SDS011;2313;48.552;9.370;2023-06-10T14:11:59;3.83;;;2.97;;
4601;SDS011;2313;48.552;9.370;2023-06-10T14:14:25;3.50;;;3.30;;
4601;SDS011;2313;48.552;9.370;2023-06-10T14:16:50;4.00;;;3.70;;
4601;SDS011;2313;48.552;9.370;2023-06-10T14:19:16;4.53;;;3.83;;
4601;SDS011;2313;48.552;9.370;2023-06-10T14:21:41;4.30;;;3.90;;
4601;SDS011;2313;48.552;9.370;2023-06-10T14:24:07;4.50;;;3.33;;
4601;SDS011;2313;48.552;9.370;2023-06-10T14:26:33;4.50;;;3.97;;
4601;SDS011;2313;48.552;9.370;2023-06-10T14:28:58;3.60;;;3.30;;
4601;SDS011;2313;48.552;9.370;2023-06-10T14:31:24;3.73;;;3.43;;
4601;SDS011;2313;48.552;9.370;2023-06-10T14:33:49;5.37;;;3.80;;
4601;SDS011;2313;48.552;9.370;2023-06-10T14:36:15;4.50;;;4.10;;
4601;SDS011;2313;48.552;9.370;2023-06-10T14:38:41;3.80;;;3.50;;
4601;SDS011;2313;48.552;9.370;2023-06-10T14:41:07;4.40;;;4.10;;
4601;SDS011;2313;48.552;9.370;2023-06-10T14:43:32;3.90;;;3.63;;
4601;SDS011;2313;48.552;9.370;2023-06-10T14:45:58;13.70;;;4.07;;
4601;SDS011;2313;48.552;9.370;2023-06-10T14:48:23;4.33;;;3.93;;
4601;SDS011;2313;48.552;9.370;2023-06-10T14:50:49;4.17;;;3.87;;
4601;SDS011;2313;48.552;9.370;2023-06-10T14:53:19;5.03;;;3.90;;
4601;SDS011;2313;48.552;9.370;2023-06-10T14:55:44;4.77;;;4.30;;
4601;SDS011;2313;48.552;9.370;2023-06-10T14:58:10;4.80;;;4.40;;
4601;SDS011;2313;48.552;9.370;2023-06-10T15:00:36;5.70;;;4.90;;
4601;SDS011;2313;48.552;9.370;2023-06-10T15:03:01;7.60;;;4.57;;
4601;SDS011;2313;48.552;9.370;2023-06-10T15:05:27;4.83;;;4.33;;
4601;SDS011;2313;48.552;9.370;2023-06-10T15:07:53;4.90;;;4.40;;
4601;SDS011;2313;48.552;9.370;2023-06-10T15:10:19;5.30;;;4.40;;
4601;SDS011;2313;48.552;9.370;2023-06-10T15:12:46;5.87;;;5.07;;
4601;SDS011;2313;48.552;9.370;2023-06-10T15:15:12;4.43;;;4.03;;
4601;SDS011;2313;48.552;9.370;2023-06-10T15:17:37;4.70;;;4.40;;
4601;SDS011;2313;48.552;9.370;2023-06-10T15:20:03;4.83;;;4.47;;
4601;SDS011;2313;48.552;9.370;2023-06-10T15:22:30;6.00;;;5.13;;
4601;SDS011;2313;48.552;9.370;2023-06-10T15:24:55;4.80;;;4.40;;
4601;SDS011;2313;48.552;9.370;2023-06-10T15:27:22;5.80;;;5.30;;
4601;SDS011;2313;48.552;9.370;2023-06-10T15:29:48;5.47;;;4.40;;
4601;SDS011;2313;48.552;9.370;2023-06-10T15:32:13;5.43;;;5.00;;
4601;SDS011;2313;48.552;9.370;2023-06-10T15:34:39;5.43;;;4.73;;